Terminal Aerodrome Forecast
Issued by NWS

Home | Current Version | Previous Version | Text Only | Print | Product List | Glossary On
Versions: 1 2 3 4 5 6 7 8 9 10 11 12 13 14 15 16 17 18 19 20 21 22 23 24 25 26 27 28 29 30
907
FTUS41 KAKQ 062330
TAFPHF
TAF
KPHF 062330Z 0700/0724 30007KT P6SM FEW015 BKN060
     FM070500 25005KT P6SM OVC035
     FM070800 29004KT P6SM OVC019
     FM071300 29006KT P6SM BKN045
     FM072000 32006KT P6SM BKN100=

USA.gov is the U.S. government's official web portal to all federal, state and local government web resources and services.